^^
Datos históricos de la estación: Murcia-Puente Tocinos
Diario Informe para Junio 3, 2019 Unidades:  Métrico    Inglés   Ambas
Diario Semanal Mensual Anual Configurable
  Máximo: Mínimo: Media:
Temperatura: 30.3 °C 16.4 °C 23.2 °C
Punto de rocio: 15.2 °C 8.6 °C 10.7 °C
Humedad: 72% 27% 48%
Velocidad viento: 17.2km/h 0.0km/h 7.3km/h
Racha viento: 30.9km/h - -
Viento- - ESE
Presión: 1017.7 hPa 1012.7 hPa -
Precipitación: 0.0 mm    
Historical Graphs
 
 
Tabla de datos para Junio 3, 2019
Hora Temperatura Punto de rocio Presión Viento Velocidad viento Racha viento Humedad Intensidad lluvia(por hora) Nubes
00:04 19.7 °C 12.2 °C 1017.6 hPa ENE 8.7 km/h 11.1 km/h 62% 0.0 mm CLR
00:09 19.6 °C 12.4 °C 1017.6 hPa NE 7.6 km/h 13.0 km/h 63% 0.0 mm CLR
00:14 19.6 °C 12.4 °C 1017.6 hPa NE 7.6 km/h 11.1 km/h 63% 0.0 mm CLR
00:19 19.6 °C 12.6 °C 1017.6 hPa NNE 8.7 km/h 11.1 km/h 64% 0.0 mm CLR
00:24 19.5 °C 12.7 °C 1017.6 hPa NNE 8.7 km/h 11.1 km/h 65% 0.0 mm CLR
00:29 19.3 °C 12.6 °C 1017.6 hPa NE 7.6 km/h 11.1 km/h 65% 0.0 mm CLR
00:34 19.3 °C 12.8 °C 1017.6 hPa NE 7.6 km/h 11.1 km/h 66% 0.0 mm CLR
00:39 19.2 °C 12.7 °C 1017.6 hPa NNE 6.9 km/h 9.3 km/h 66% 0.0 mm CLR
00:44 19.0 °C 12.7 °C 1017.6 hPa North 6.9 km/h 9.5 km/h 67% 0.0 mm CLR
00:49 18.9 °C 12.9 °C 1017.7 hPa North 6.4 km/h 7.4 km/h 68% 0.0 mm CLR
00:54 18.9 °C 12.9 °C 1017.7 hPa NE 6.4 km/h 10.3 km/h 68% 0.0 mm CLR
00:59 18.8 °C 12.8 °C 1017.7 hPa NE 6.4 km/h 7.6 km/h 68% 0.0 mm CLR
01:04 18.7 °C 12.4 °C 1017.6 hPa NE 6.4 km/h 9.3 km/h 67% 0.0 mm CLR
01:09 18.7 °C 12.4 °C 1017.6 hPa NNE 6.4 km/h 9.3 km/h 67% 0.0 mm CLR
01:14 18.7 °C 12.4 °C 1017.6 hPa NE 6.4 km/h 5.6 km/h 67% 0.0 mm CLR
01:19 18.8 °C 12.3 °C 1017.6 hPa NE 3.2 km/h 5.6 km/h 66% 0.0 mm CLR
01:24 18.8 °C 11.8 °C 1017.6 hPa NE 3.2 km/h 7.4 km/h 64% 0.0 mm CLR
01:29 18.7 °C 11.7 °C 1017.6 hPa ENE 4.7 km/h 5.6 km/h 64% 0.0 mm CLR
01:34 18.7 °C 11.5 °C 1017.6 hPa NE 4.7 km/h 7.6 km/h 63% 0.0 mm CLR
01:39 18.7 °C 11.3 °C 1017.6 hPa NE 4.7 km/h 5.6 km/h 62% 0.0 mm CLR
01:44 18.7 °C 11.3 °C 1017.6 hPa NE 4.7 km/h 5.6 km/h 62% 0.0 mm CLR
01:49 18.7 °C 11.0 °C 1017.4 hPa ENE 2.9 km/h 5.6 km/h 61% 0.0 mm CLR
01:54 18.8 °C 11.1 °C 1017.4 hPa ENE 2.9 km/h 5.6 km/h 61% 0.0 mm CLR
01:59 18.8 °C 10.9 °C 1017.4 hPa ENE 2.9 km/h 4.7 km/h 60% 0.0 mm CLR
02:04 18.8 °C 10.6 °C 1017.4 hPa ENE 2.9 km/h 4.7 km/h 59% 0.0 mm CLR
02:09 18.9 °C 10.4 °C 1017.4 hPa ENE 3.2 km/h 5.6 km/h 58% 0.0 mm CLR
02:14 18.8 °C 9.8 °C 1017.4 hPa ENE 3.2 km/h 3.7 km/h 56% 0.0 mm CLR
02:19 18.7 °C 9.2 °C 1017.2 hPa East 2.9 km/h 5.6 km/h 54% 0.0 mm CLR
02:24 18.6 °C 9.4 °C 1017.2 hPa East 2.9 km/h 7.4 km/h 55% 0.0 mm CLR
02:29 18.4 °C 9.4 °C 1017.2 hPa East 3.2 km/h 3.7 km/h 56% 0.0 mm CLR
02:34 18.3 °C 9.6 °C 1017.0 hPa East 3.2 km/h 3.7 km/h 57% 0.0 mm CLR
02:39 18.3 °C 9.6 °C 1017.0 hPa East 2.3 km/h   57% 0.0 mm CLR
02:44 18.3 °C 9.6 °C 1017.0 hPa East 2.3 km/h   57% 0.0 mm CLR
02:49 18.3 °C 9.6 °C 1016.8 hPa Calm     57% 0.0 mm CLR
02:54 18.3 °C 9.9 °C 1016.8 hPa Calm   3.7 km/h 58% 0.0 mm CLR
02:59 18.3 °C 10.2 °C 1016.8 hPa East 2.3 km/h 3.9 km/h 59% 0.0 mm CLR
03:04 18.2 °C 10.3 °C 1016.7 hPa East 2.3 km/h   60% 0.0 mm CLR
03:09 18.1 °C 10.2 °C 1016.7 hPa Calm     60% 0.0 mm CLR
03:14 18.0 °C 10.1 °C 1016.7 hPa Calm     60% 0.0 mm CLR
03:19 18.0 °C 10.1 °C 1016.6 hPa Calm     60% 0.0 mm CLR
03:24 17.9 °C 10.0 °C 1016.6 hPa Calm     60% 0.0 mm CLR
03:29 18.0 °C 10.4 °C 1016.6 hPa Calm   3.9 km/h 61% 0.0 mm CLR
03:34 18.0 °C 10.4 °C 1016.4 hPa Calm     61% 0.0 mm CLR
03:39 17.9 °C 10.3 °C 1016.4 hPa Calm     61% 0.0 mm CLR
03:44 17.9 °C 10.3 °C 1016.4 hPa Calm     61% 0.0 mm CLR
03:49 17.9 °C 10.0 °C 1016.4 hPa Calm     60% 0.0 mm CLR
03:54 18.0 °C 10.4 °C 1016.4 hPa Calm     61% 0.0 mm CLR
03:59 18.0 °C 10.4 °C 1016.4 hPa Calm     61% 0.0 mm CLR
04:04 17.9 °C 10.3 °C 1016.4 hPa Calm     61% 0.0 mm CLR
04:09 17.9 °C 10.0 °C 1016.4 hPa Calm   2.3 km/h 60% 0.0 mm CLR
04:14 17.9 °C 9.8 °C 1016.4 hPa Calm   5.6 km/h 59% 0.0 mm CLR
04:19 17.8 °C 9.4 °C 1016.2 hPa East 2.3 km/h 5.0 km/h 58% 0.0 mm CLR
04:24 17.7 °C 9.3 °C 1016.2 hPa East 2.3 km/h 5.6 km/h 58% 0.0 mm CLR
04:29 17.7 °C 9.6 °C 1016.2 hPa East 3.2 km/h 3.7 km/h 59% 0.0 mm CLR
04:34 17.7 °C 10.3 °C 1016.2 hPa East 3.2 km/h 3.7 km/h 62% 0.0 mm CLR
04:39 17.7 °C 10.3 °C 1016.2 hPa Calm     62% 0.0 mm CLR
04:44 17.7 °C 10.3 °C 1016.2 hPa Calm   2.9 km/h 62% 0.0 mm CLR
04:49 17.7 °C 10.3 °C 1016.3 hPa Calm     62% 0.0 mm CLR
04:54 17.7 °C 10.6 °C 1016.3 hPa Calm     63% 0.0 mm CLR
04:59 17.6 °C 10.4 °C 1016.3 hPa Calm     63% 0.0 mm CLR
05:04 17.6 °C 10.7 °C 1016.0 hPa Calm     64% 0.0 mm CLR
05:09 17.4 °C 10.1 °C 1016.0 hPa Calm   3.9 km/h 62% 0.0 mm CLR
05:14 17.4 °C 10.1 °C 1016.0 hPa Calm   5.0 km/h 62% 0.0 mm CLR
05:19 17.4 °C 10.1 °C 1016.0 hPa East 2.9 km/h 5.6 km/h 62% 0.0 mm CLR
05:24 17.4 °C 10.3 °C 1016.0 hPa SE 2.9 km/h 5.6 km/h 63% 0.0 mm CLR
05:29 17.4 °C 10.3 °C 1016.0 hPa SE 3.9 km/h 5.6 km/h 63% 0.0 mm CLR
05:34 17.4 °C 10.3 °C 1016.0 hPa South 3.9 km/h 7.6 km/h 63% 0.0 mm CLR
05:39 17.4 °C 10.1 °C 1016.0 hPa SE 4.7 km/h 7.4 km/h 62% 0.0 mm CLR
05:44 17.4 °C 10.1 °C 1016.0 hPa SE 4.7 km/h 5.6 km/h 62% 0.0 mm CLR
05:49 17.3 °C 9.9 °C 1016.0 hPa SE 3.2 km/h 7.4 km/h 62% 0.0 mm CLR
05:54 17.2 °C 10.1 °C 1016.0 hPa SE 3.2 km/h 5.6 km/h 63% 0.0 mm CLR
05:59 17.1 °C 10.0 °C 1016.0 hPa SE 3.9 km/h 5.6 km/h 63% 0.0 mm CLR
06:04 17.1 °C 10.0 °C 1016.0 hPa South 3.9 km/h 7.4 km/h 63% 0.0 mm CLR
06:09 17.1 °C 10.0 °C 1016.0 hPa South 3.9 km/h 3.7 km/h 63% 0.0 mm CLR
06:14 17.1 °C 10.2 °C 1016.0 hPa WSW 3.9 km/h 5.6 km/h 64% 0.0 mm CLR
06:19 17.1 °C 10.2 °C 1016.2 hPa WSW 2.9 km/h   64% 0.0 mm CLR
06:24 17.0 °C 10.1 °C 1016.2 hPa WSW 2.9 km/h 3.7 km/h 64% 0.0 mm CLR
06:29 16.9 °C 10.1 °C 1016.2 hPa WSW 2.3 km/h 7.4 km/h 64% 0.0 mm CLR
06:34 16.9 °C 10.1 °C 1016.3 hPa WSW 2.3 km/h 5.6 km/h 64% 0.0 mm CLR
06:39 16.8 °C 9.7 °C 1016.3 hPa SE 3.2 km/h 7.4 km/h 63% 0.0 mm CLR
06:44 16.7 °C 9.6 °C 1016.3 hPa SE 3.2 km/h 5.6 km/h 63% 0.0 mm CLR
06:49 16.6 °C 9.5 °C 1016.4 hPa SE 4.7 km/h 7.4 km/h 63% 0.0 mm CLR
06:54 16.5 °C 9.4 °C 1016.4 hPa SE 4.7 km/h 7.4 km/h 63% 0.0 mm CLR
06:59 16.4 °C 9.3 °C 1016.4 hPa SSE 4.7 km/h 9.3 km/h 63% 0.0 mm CLR
07:04 16.4 °C 9.6 °C 1016.5 hPa SSE 4.7 km/h 5.6 km/h 64% 0.0 mm CLR
07:09 16.4 °C 9.6 °C 1016.5 hPa South 4.7 km/h 8.4 km/h 64% 0.0 mm CLR
07:14 16.4 °C 9.6 °C 1016.5 hPa South 4.7 km/h 9.3 km/h 64% 0.0 mm CLR
07:19 16.6 °C 9.8 °C 1016.6 hPa South 5.8 km/h 9.3 km/h 64% 0.0 mm CLR
07:24 16.8 °C 9.9 °C 1016.6 hPa SSE 5.8 km/h 7.4 km/h 64% 0.0 mm CLR
07:29 16.9 °C 9.8 °C 1016.6 hPa SSE 6.4 km/h 9.3 km/h 63% 0.0 mm CLR
07:34 17.1 °C 9.8 °C 1016.5 hPa South 6.4 km/h 7.4 km/h 62% 0.0 mm CLR
07:39 17.2 °C 9.8 °C 1016.5 hPa SSE 5.8 km/h 7.4 km/h 62% 0.0 mm CLR
07:44 17.3 °C 9.9 °C 1016.5 hPa SSE 5.8 km/h 3.7 km/h 62% 0.0 mm CLR
07:49 17.4 °C 10.1 °C 1016.5 hPa SSE 3.2 km/h 3.7 km/h 62% 0.0 mm CLR
07:54 17.6 °C 10.0 °C 1016.5 hPa SSE 3.2 km/h 3.7 km/h 61% 0.0 mm CLR
07:59 17.8 °C 10.4 °C 1016.5 hPa SSE 2.3 km/h 3.7 km/h 62% 0.0 mm CLR
08:04 18.1 °C 10.4 °C 1016.5 hPa SSE 2.3 km/h 2.9 km/h 61% 0.0 mm CLR
08:09 18.4 °C 10.5 °C 1016.5 hPa ENE 2.3 km/h 3.7 km/h 60% 0.0 mm CLR
08:14 18.6 °C 10.7 °C 1016.5 hPa ENE 2.3 km/h 5.6 km/h 60% 0.0 mm CLR
08:19 18.8 °C 10.6 °C 1016.7 hPa Calm     59% 0.0 mm CLR
08:24 18.8 °C 10.9 °C 1016.7 hPa Calm   3.7 km/h 60% 0.0 mm CLR
08:29 19.1 °C 10.9 °C 1016.7 hPa East 2.3 km/h 5.6 km/h 59% 0.0 mm CLR
08:34 19.1 °C 10.9 °C 1016.7 hPa ESE 2.3 km/h 7.4 km/h 59% 0.0 mm CLR
08:39 19.1 °C 10.9 °C 1016.7 hPa ESE 3.9 km/h 5.6 km/h 59% 0.0 mm CLR
08:44 19.2 °C 10.7 °C 1016.7 hPa SE 3.9 km/h 7.6 km/h 58% 0.0 mm CLR
08:49 19.2 °C 10.7 °C 1016.7 hPa ESE 4.7 km/h 7.4 km/h 58% 0.0 mm CLR
08:54 19.2 °C 10.4 °C 1016.7 hPa SSE 4.7 km/h 7.6 km/h 57% 0.0 mm CLR
08:59 19.2 °C 10.4 °C 1016.7 hPa South 5.8 km/h 7.4 km/h 57% 0.0 mm CLR
09:04 19.3 °C 10.6 °C 1016.7 hPa SSE 5.8 km/h 9.3 km/h 57% 0.0 mm CLR
09:09 19.4 °C 10.4 °C 1016.7 hPa SSE 6.4 km/h 11.1 km/h 56% 0.0 mm CLR
09:14 19.5 °C 10.5 °C 1016.7 hPa SSE 6.4 km/h 11.1 km/h 56% 0.0 mm CLR
09:19 19.8 °C 10.8 °C 1017.0 hPa South 6.4 km/h 9.3 km/h 56% 0.0 mm CLR
09:24 20.1 °C 10.8 °C 1017.0 hPa SW 6.4 km/h 7.6 km/h 55% 0.0 mm CLR
09:29 20.3 °C 10.7 °C 1017.0 hPa WNW 5.0 km/h 7.6 km/h 54% 0.0 mm CLR
09:34 20.5 °C 10.6 °C 1017.0 hPa NNW 5.0 km/h 7.4 km/h 53% 0.0 mm CLR
09:39 20.7 °C 10.5 °C 1017.0 hPa WSW 5.0 km/h 11.1 km/h 52% 0.0 mm CLR
09:44 20.8 °C 10.0 °C 1017.0 hPa SW 5.0 km/h 11.1 km/h 50% 0.0 mm CLR
09:49 20.9 °C 10.1 °C 1017.0 hPa West 6.9 km/h 7.4 km/h 50% 0.0 mm CLR
09:54 21.1 °C 9.9 °C 1017.0 hPa SSW 6.9 km/h 7.4 km/h 49% 0.0 mm CLR
09:59 21.4 °C 9.9 °C 1017.0 hPa West 3.9 km/h 7.6 km/h 48% 0.0 mm CLR
10:04 21.6 °C 9.8 °C 1017.1 hPa NW 3.9 km/h 7.6 km/h 47% 0.0 mm CLR
10:09 21.9 °C 10.1 °C 1017.1 hPa NNW 4.7 km/h 4.7 km/h 47% 0.0 mm CLR
10:14 22.3 °C 9.8 °C 1017.1 hPa NNW 4.7 km/h 3.7 km/h 45% 0.0 mm CLR
10:19 22.7 °C 9.8 °C 1016.9 hPa NW 2.9 km/h 7.4 km/h 44% 0.0 mm CLR
10:24 22.8 °C 9.9 °C 1016.9 hPa WNW 2.9 km/h 5.6 km/h 44% 0.0 mm CLR
10:29 22.9 °C 10.0 °C 1016.9 hPa SSW 4.7 km/h 9.3 km/h 44% 0.0 mm CLR
10:34 22.9 °C 10.0 °C 1016.9 hPa South 4.7 km/h 9.3 km/h 44% 0.0 mm CLR
10:39 22.9 °C 9.7 °C 1016.9 hPa East 5.8 km/h 7.4 km/h 43% 0.0 mm CLR
10:44 23.2 °C 9.9 °C 1016.9 hPa ESE 5.8 km/h 5.6 km/h 43% 0.0 mm CLR
10:49 23.4 °C 9.8 °C 1016.9 hPa West 3.2 km/h 5.0 km/h 42% 0.0 mm CLR
10:54 23.6 °C 9.9 °C 1016.9 hPa WSW 3.2 km/h 3.9 km/h 42% 0.0 mm CLR
10:59 24.0 °C 9.9 °C 1016.9 hPa NNW 3.2 km/h 7.4 km/h 41% 0.0 mm CLR
11:04 24.2 °C 9.7 °C 1016.8 hPa NW 3.2 km/h 7.4 km/h 40% 0.0 mm CLR
11:09 24.2 °C 9.7 °C 1016.8 hPa WNW 5.0 km/h 3.7 km/h 40% 0.0 mm CLR
11:14 24.5 °C 9.6 °C 1016.8 hPa ENE 5.0 km/h 9.3 km/h 39% 0.0 mm CLR
11:19 24.7 °C 9.8 °C 1016.7 hPa East 5.0 km/h 9.3 km/h 39% 0.0 mm CLR
11:24 24.8 °C 9.9 °C 1016.7 hPa East 5.0 km/h 10.3 km/h 39% 0.0 mm CLR
11:29 25.0 °C 9.7 °C 1016.7 hPa ENE 5.0 km/h 13.0 km/h 38% 0.0 mm CLR
11:34 25.1 °C 10.2 °C 1016.6 hPa ENE 5.0 km/h 7.4 km/h 39% 0.0 mm CLR
11:39 25.2 °C 9.4 °C 1016.6 hPa ENE 7.6 km/h 7.4 km/h 37% 0.0 mm CLR
11:44 25.3 °C 9.2 °C 1016.6 hPa NNE 7.6 km/h 15.6 km/h 36% 0.0 mm CLR
11:49 25.2 °C 9.1 °C 1016.6 hPa North 8.4 km/h 13.0 km/h 36% 0.0 mm CLR
11:54 25.3 °C 9.6 °C 1016.6 hPa NE 8.4 km/h 9.3 km/h 37% 0.0 mm CLR
11:59 25.7 °C 9.5 °C 1016.6 hPa NE 6.9 km/h 14.8 km/h 36% 0.0 mm CLR
12:04 25.8 °C 9.6 °C 1016.6 hPa ENE 6.9 km/h 11.1 km/h 36% 0.0 mm CLR
12:09 26.0 °C 9.8 °C 1016.6 hPa NE 6.4 km/h 7.4 km/h 36% 0.0 mm CLR
12:14 26.2 °C 9.9 °C 1016.6 hPa NE 6.4 km/h 11.1 km/h 36% 0.0 mm CLR
12:19 26.3 °C 9.6 °C 1016.5 hPa NE 6.9 km/h 13.0 km/h 35% 0.0 mm CLR
12:24 26.3 °C 9.6 °C 1016.5 hPa NNE 6.9 km/h 14.8 km/h 35% 0.0 mm CLR
12:29 26.4 °C 10.1 °C 1016.5 hPa ESE 7.6 km/h 7.4 km/h 36% 0.0 mm CLR
12:34 26.7 °C 9.9 °C 1016.4 hPa East 7.6 km/h 11.1 km/h 35% 0.0 mm CLR
12:39 26.8 °C 9.6 °C 1016.4 hPa ESE 6.9 km/h 9.3 km/h 34% 0.0 mm CLR
12:44 26.9 °C 10.2 °C 1016.4 hPa NNE 6.9 km/h 17.2 km/h 35% 0.0 mm CLR
12:49 27.1 °C 9.9 °C 1016.3 hPa NNW 5.8 km/h 13.0 km/h 34% 0.0 mm CLR
12:54 27.2 °C 10.4 °C 1016.3 hPa ENE 5.8 km/h 14.8 km/h 35% 0.0 mm CLR
12:59 27.3 °C 10.1 °C 1016.3 hPa North 8.4 km/h 13.0 km/h 34% 0.0 mm CLR
13:04 27.6 °C 10.3 °C 1016.0 hPa NNE 8.4 km/h 18.5 km/h 34% 0.0 mm CLR
13:09 27.6 °C 9.9 °C 1016.0 hPa NNE 9.5 km/h 7.6 km/h 33% 0.0 mm CLR
13:14 27.8 °C 10.1 °C 1016.0 hPa NNE 9.5 km/h 16.7 km/h 33% 0.0 mm CLR
13:19 27.9 °C 9.7 °C 1015.8 hPa East 8.4 km/h 16.7 km/h 32% 0.0 mm CLR
13:24 27.9 °C 9.7 °C 1015.8 hPa NW 8.4 km/h 5.6 km/h 32% 0.0 mm CLR
13:29 28.1 °C 9.8 °C 1015.8 hPa ENE 7.6 km/h 14.8 km/h 32% 0.0 mm CLR
13:34 28.2 °C 9.9 °C 1015.7 hPa ENE 7.6 km/h 13.0 km/h 32% 0.0 mm CLR
13:39 28.6 °C 9.3 °C 1015.7 hPa East 8.4 km/h 9.3 km/h 30% 0.0 mm CLR
13:44 29.1 °C 10.2 °C 1015.7 hPa ENE 8.4 km/h 16.7 km/h 31% 0.0 mm CLR
13:49 28.9 °C 10.1 °C 1015.4 hPa East 6.9 km/h 8.4 km/h 31% 0.0 mm CLR
13:54 28.7 °C 8.9 °C 1015.4 hPa East 6.9 km/h 11.1 km/h 29% 0.0 mm CLR
13:59 28.8 °C 9.0 °C 1015.4 hPa SE 8.7 km/h 11.1 km/h 29% 0.0 mm CLR
14:04 28.8 °C 9.0 °C 1015.3 hPa NW 8.7 km/h 14.8 km/h 29% 0.0 mm CLR
14:09 29.0 °C 9.2 °C 1015.3 hPa ESE 7.6 km/h 17.2 km/h 29% 0.0 mm CLR
14:14 28.9 °C 9.1 °C 1015.3 hPa SSE 7.6 km/h 13.0 km/h 29% 0.0 mm CLR
14:19 29.1 °C 9.2 °C 1015.1 hPa SSE 9.5 km/h 5.6 km/h 29% 0.0 mm CLR
14:24 29.5 °C 9.1 °C 1015.1 hPa East 9.5 km/h 16.4 km/h 28% 0.0 mm CLR
14:29 29.6 °C 9.2 °C 1015.1 hPa East 8.4 km/h 14.8 km/h 28% 0.0 mm CLR
14:34 29.5 °C 8.6 °C 1015.0 hPa SE 8.4 km/h 11.1 km/h 27% 0.0 mm CLR
14:39 29.6 °C 9.7 °C 1015.0 hPa SSE 8.7 km/h 9.3 km/h 29% 0.0 mm CLR
14:44 29.9 °C 10.4 °C 1015.0 hPa SSW 8.7 km/h 11.1 km/h 30% 0.0 mm CLR
14:49 29.8 °C 10.8 °C 1014.7 hPa ENE 8.4 km/h 16.7 km/h 31% 0.0 mm CLR
14:54 29.6 °C 10.7 °C 1014.7 hPa ESE 8.4 km/h 18.5 km/h 31% 0.0 mm CLR
14:59 29.7 °C 11.2 °C 1014.7 hPa NE 10.0 km/h 11.1 km/h 32% 0.0 mm CLR
15:04 30.1 °C 10.1 °C 1014.6 hPa SSW 10.0 km/h 11.9 km/h 29% 0.0 mm CLR
15:09 30.0 °C 10.0 °C 1014.6 hPa South 6.4 km/h 6.9 km/h 29% 0.0 mm CLR
15:14 30.1 °C 10.6 °C 1014.6 hPa ESE 6.4 km/h 14.8 km/h 30% 0.0 mm CLR
15:19 30.3 °C 10.8 °C 1014.4 hPa SE 7.6 km/h 13.0 km/h 30% 0.0 mm CLR
15:24 30.3 °C 10.3 °C 1014.4 hPa SSE 7.6 km/h 11.1 km/h 29% 0.0 mm CLR
15:29 30.1 °C 10.6 °C 1014.4 hPa SW 8.4 km/h 11.1 km/h 30% 0.0 mm CLR
15:34 30.1 °C 10.1 °C 1014.1 hPa SSE 8.4 km/h 17.2 km/h 29% 0.0 mm CLR
15:39 30.2 °C 10.2 °C 1014.1 hPa SE 10.3 km/h 20.4 km/h 29% 0.0 mm CLR
15:44 30.3 °C 10.3 °C 1014.1 hPa ESE 10.3 km/h 14.8 km/h 29% 0.0 mm CLR
15:49 30.2 °C 10.2 °C 1014.1 hPa SSW 11.9 km/h 14.8 km/h 29% 0.0 mm CLR
15:54 30.2 °C 10.2 °C 1014.1 hPa East 11.9 km/h 20.4 km/h 29% 0.0 mm CLR
15:59 30.3 °C 9.8 °C 1014.1 hPa ESE 11.1 km/h 20.4 km/h 28% 0.0 mm CLR
16:04 30.0 °C 9.5 °C 1013.9 hPa SSE 11.1 km/h 24.1 km/h 28% 0.0 mm CLR
16:09 30.1 °C 9.6 °C 1013.9 hPa ESE 14.0 km/h 18.5 km/h 28% 0.0 mm CLR
16:14 30.2 °C 9.7 °C 1013.9 hPa SE 14.0 km/h 18.0 km/h 28% 0.0 mm CLR
16:19 30.1 °C 9.6 °C 1013.9 hPa SSE 13.7 km/h 22.2 km/h 28% 0.0 mm CLR
16:24 29.9 °C 9.4 °C 1013.9 hPa ESE 13.7 km/h 16.1 km/h 28% 0.0 mm CLR
16:29 30.1 °C 9.6 °C 1013.9 hPa East 12.2 km/h 22.2 km/h 28% 0.0 mm CLR
16:34 30.2 °C 9.7 °C 1013.7 hPa SE 12.2 km/h 18.5 km/h 28% 0.0 mm CLR
16:39 30.2 °C 9.7 °C 1013.7 hPa SSE 14.0 km/h 22.2 km/h 28% 0.0 mm CLR
16:44 30.1 °C 9.6 °C 1013.7 hPa ESE 14.0 km/h 22.2 km/h 28% 0.0 mm CLR
16:49 30.1 °C 9.6 °C 1013.5 hPa SSE 15.6 km/h 20.4 km/h 28% 0.0 mm CLR
16:54 29.9 °C 9.9 °C 1013.5 hPa SE 15.6 km/h 22.2 km/h 29% 0.0 mm CLR
16:59 29.7 °C 9.8 °C 1013.5 hPa SSE 14.8 km/h 22.0 km/h 29% 0.0 mm CLR
17:04 29.6 °C 10.2 °C 1013.4 hPa ESE 14.8 km/h 22.2 km/h 30% 0.0 mm CLR
17:09 29.7 °C 10.8 °C 1013.4 hPa ESE 14.0 km/h 24.1 km/h 31% 0.0 mm CLR
17:14 29.7 °C 11.2 °C 1013.4 hPa East 14.0 km/h 16.7 km/h 32% 0.0 mm CLR
17:19 29.8 °C 11.3 °C 1013.3 hPa SE 13.7 km/h 22.2 km/h 32% 0.0 mm CLR
17:24 29.7 °C 11.2 °C 1013.3 hPa ESE 13.7 km/h 20.4 km/h 32% 0.0 mm CLR
17:29 29.6 °C 11.6 °C 1013.3 hPa ESE 14.8 km/h 24.1 km/h 33% 0.0 mm CLR
17:34 29.6 °C 11.2 °C 1013.3 hPa ESE 14.8 km/h 24.1 km/h 32% 0.0 mm CLR
17:39 29.3 °C 11.3 °C 1013.3 hPa ESE 16.1 km/h 24.1 km/h 33% 0.0 mm CLR
17:44 29.0 °C 11.1 °C 1013.3 hPa East 16.1 km/h 25.9 km/h 33% 0.0 mm CLR
17:49 29.2 °C 11.3 °C 1013.2 hPa ESE 17.2 km/h 25.9 km/h 33% 0.0 mm CLR
17:54 28.9 °C 11.4 °C 1013.2 hPa ESE 17.2 km/h 29.6 km/h 34% 0.0 mm CLR
17:59 29.1 °C 12.1 °C 1013.2 hPa East 17.2 km/h 30.9 km/h 35% 0.0 mm CLR
18:04 29.0 °C 12.0 °C 1013.1 hPa SE 17.2 km/h 22.2 km/h 35% 0.0 mm CLR
18:09 29.2 °C 11.7 °C 1013.1 hPa East 14.0 km/h 25.9 km/h 34% 0.0 mm CLR
18:14 29.0 °C 12.0 °C 1013.1 hPa ESE 14.0 km/h 22.2 km/h 35% 0.0 mm CLR
18:19 28.8 °C 11.4 °C 1013.1 hPa East 15.6 km/h 22.2 km/h 34% 0.0 mm CLR
18:24 28.6 °C 11.6 °C 1013.1 hPa ESE 15.6 km/h 24.1 km/h 35% 0.0 mm CLR
18:29 28.7 °C 11.7 °C 1013.1 hPa ESE 14.8 km/h 22.2 km/h 35% 0.0 mm CLR
18:34 28.6 °C 11.6 °C 1013.1 hPa East 14.8 km/h 14.8 km/h 35% 0.0 mm CLR
18:39 28.7 °C 11.3 °C 1013.1 hPa ESE 12.2 km/h 22.2 km/h 34% 0.0 mm CLR
18:44 28.7 °C 11.7 °C 1013.1 hPa ESE 12.2 km/h 24.1 km/h 35% 0.0 mm CLR
18:49 28.7 °C 11.3 °C 1013.0 hPa East 14.0 km/h 18.0 km/h 34% 0.0 mm CLR
18:54 28.6 °C 11.6 °C 1013.0 hPa East 14.0 km/h 18.5 km/h 35% 0.0 mm CLR
18:59 28.4 °C 11.4 °C 1013.0 hPa East 13.0 km/h 24.1 km/h 35% 0.0 mm CLR
19:04 28.2 °C 11.3 °C 1012.9 hPa ESE 13.0 km/h 24.1 km/h 35% 0.0 mm CLR
19:09 28.1 °C 11.2 °C 1012.9 hPa East 16.4 km/h 22.2 km/h 35% 0.0 mm CLR
19:14 28.2 °C 11.7 °C 1012.9 hPa ESE 16.4 km/h 16.1 km/h 36% 0.0 mm CLR
19:19 28.2 °C 11.3 °C 1012.7 hPa ESE 14.0 km/h 18.5 km/h 35% 0.0 mm CLR
19:24 28.1 °C 11.6 °C 1012.7 hPa ESE 14.0 km/h 20.4 km/h 36% 0.0 mm CLR
19:29 27.9 °C 11.0 °C 1012.7 hPa ESE 14.8 km/h 18.5 km/h 35% 0.0 mm CLR
19:34 28.0 °C 11.1 °C 1012.7 hPa East 14.8 km/h 20.4 km/h 35% 0.0 mm CLR
19:39 28.1 °C 11.2 °C 1012.7 hPa ESE 11.1 km/h 15.6 km/h 35% 0.0 mm CLR
19:44 28.0 °C 11.1 °C 1012.7 hPa ESE 11.1 km/h 22.2 km/h 35% 0.0 mm CLR
19:49 27.8 °C 10.9 °C 1012.8 hPa ESE 12.2 km/h 18.5 km/h 35% 0.0 mm CLR
19:54 27.7 °C 10.4 °C 1012.8 hPa ESE 12.2 km/h 18.5 km/h 34% 0.0 mm CLR
19:59 27.6 °C 10.3 °C 1012.8 hPa ESE 13.0 km/h 16.7 km/h 34% 0.0 mm CLR
20:04 27.6 °C 10.3 °C 1012.8 hPa SE 13.0 km/h 13.0 km/h 34% 0.0 mm CLR
20:09 27.6 °C 10.3 °C 1012.8 hPa SE 10.3 km/h 14.8 km/h 34% 0.0 mm CLR
20:14 27.4 °C 10.2 °C 1012.8 hPa ESE 10.3 km/h 14.8 km/h 34% 0.0 mm CLR
20:19 27.3 °C 10.1 °C 1012.8 hPa ESE 10.0 km/h 13.0 km/h 34% 0.0 mm CLR
20:24 27.3 °C 10.5 °C 1012.8 hPa East 10.0 km/h 13.0 km/h 35% 0.0 mm CLR
20:29 27.2 °C 10.4 °C 1012.8 hPa ESE 8.4 km/h 13.7 km/h 35% 0.0 mm CLR
20:34 27.1 °C 10.3 °C 1012.9 hPa ENE 8.4 km/h 14.8 km/h 35% 0.0 mm CLR
20:39 26.9 °C 10.6 °C 1012.9 hPa East 8.7 km/h 14.8 km/h 36% 0.0 mm CLR
20:44 26.7 °C 10.4 °C 1012.9 hPa East 8.7 km/h 10.0 km/h 36% 0.0 mm CLR
20:49 26.7 °C 10.4 °C 1012.9 hPa NNE 7.6 km/h 9.3 km/h 36% 0.0 mm CLR
20:54 26.4 °C 10.6 °C 1012.9 hPa NNE 7.6 km/h 13.0 km/h 37% 0.0 mm CLR
20:59 26.3 °C 10.4 °C 1012.9 hPa NNE 7.6 km/h 9.3 km/h 37% 0.0 mm CLR
21:04 26.2 °C 10.3 °C 1012.9 hPa ENE 7.6 km/h 18.5 km/h 37% 0.0 mm CLR
21:09 25.9 °C 9.7 °C 1012.9 hPa ENE 10.0 km/h 13.0 km/h 36% 0.0 mm CLR
21:14 25.7 °C 10.3 °C 1012.9 hPa NE 10.0 km/h 15.6 km/h 38% 0.0 mm CLR
21:19 25.6 °C 10.2 °C 1013.0 hPa North 8.4 km/h 11.1 km/h 38% 0.0 mm CLR
21:24 25.4 °C 10.8 °C 1013.0 hPa NE 8.4 km/h 11.9 km/h 40% 0.0 mm CLR
21:29 25.2 °C 11.0 °C 1013.0 hPa ENE 8.4 km/h 13.0 km/h 41% 0.0 mm CLR
21:34 25.0 °C 11.6 °C 1013.2 hPa ENE 8.4 km/h 9.5 km/h 43% 0.0 mm CLR
21:39 24.8 °C 11.7 °C 1013.2 hPa NNE 7.6 km/h 13.0 km/h 44% 0.0 mm CLR
21:44 24.6 °C 12.2 °C 1013.2 hPa NNE 7.6 km/h 11.1 km/h 46% 0.0 mm CLR
21:49 24.3 °C 11.6 °C 1013.2 hPa NE 9.5 km/h 14.8 km/h 45% 0.0 mm CLR
21:54 24.2 °C 11.5 °C 1013.2 hPa NNE 9.5 km/h 11.1 km/h 45% 0.0 mm CLR
21:59 24.1 °C 11.8 °C 1013.2 hPa NE 8.7 km/h 13.0 km/h 46% 0.0 mm CLR
22:04 23.9 °C 10.6 °C 1013.3 hPa North 8.7 km/h 13.0 km/h 43% 0.0 mm CLR
22:09 23.5 °C 10.9 °C 1013.3 hPa NNE 10.3 km/h 13.0 km/h 45% 0.0 mm CLR
22:14 23.1 °C 11.2 °C 1013.3 hPa NNE 10.3 km/h 14.8 km/h 47% 0.0 mm CLR
22:19 22.9 °C 11.6 °C 1013.5 hPa NE 11.1 km/h 16.7 km/h 49% 0.0 mm CLR
22:24 22.7 °C 11.7 °C 1013.5 hPa NNW 11.1 km/h 14.8 km/h 50% 0.0 mm CLR
22:29 22.5 °C 12.2 °C 1013.5 hPa NE 11.9 km/h 18.5 km/h 52% 0.0 mm CLR
22:34 22.4 °C 12.3 °C 1013.6 hPa NE 11.9 km/h 16.7 km/h 53% 0.0 mm CLR
22:39 22.2 °C 12.4 °C 1013.6 hPa North 13.0 km/h 14.8 km/h 54% 0.0 mm CLR
22:44 22.1 °C 12.6 °C 1013.6 hPa NNE 13.0 km/h 20.4 km/h 55% 0.0 mm CLR
22:49 21.9 °C 13.0 °C 1013.7 hPa NE 11.1 km/h 14.8 km/h 57% 0.0 mm CLR
22:54 21.7 °C 13.1 °C 1013.7 hPa NNE 11.1 km/h 16.7 km/h 58% 0.0 mm CLR
22:59 21.6 °C 13.2 °C 1013.7 hPa NE 11.9 km/h 14.8 km/h 59% 0.0 mm CLR
23:04 21.5 °C 13.7 °C 1013.8 hPa NNE 11.9 km/h 11.9 km/h 61% 0.0 mm CLR
23:09 21.4 °C 13.8 °C 1013.8 hPa NE 11.9 km/h 12.2 km/h 62% 0.0 mm CLR
23:14 21.2 °C 13.9 °C 1013.8 hPa North 10.3 km/h 16.7 km/h 63% 0.0 mm CLR
23:19 21.1 °C 14.0 °C 1013.8 hPa NE 10.0 km/h 11.1 km/h 64% 0.0 mm CLR
23:24 21.0 °C 14.2 °C 1013.8 hPa NE 10.0 km/h 14.8 km/h 65% 0.0 mm CLR
23:29 20.9 °C 14.3 °C 1013.8 hPa ENE 9.5 km/h 11.1 km/h 66% 0.0 mm CLR
23:34 20.8 °C 14.4 °C 1013.8 hPa NNE 9.5 km/h 13.0 km/h 67% 0.0 mm CLR
23:39 20.7 °C 14.6 °C 1013.8 hPa NE 9.5 km/h 16.7 km/h 68% 0.0 mm CLR
23:44 20.6 °C 14.7 °C 1013.8 hPa NNE 9.5 km/h 14.8 km/h 69% 0.0 mm CLR
23:49 20.6 °C 14.9 °C 1013.9 hPa NNE 9.5 km/h 13.0 km/h 70% 0.0 mm CLR
23:54 20.4 °C 14.9 °C 1013.9 hPa North 9.5 km/h 13.0 km/h 71% 0.0 mm CLR
23:59 20.4 °C 15.2 °C 1013.9 hPa NNE 9.5 km/h 13.0 km/h 72% 0.0 mm CLR
Murcia-Puente Tocinos, España
Compliments of Weather Underground - 2.75 mb

La estación de MeteoMurcia.com, publica sus datos en los siguientes proyectos:

Weather Underground PWS IMURCIAP2 Meteoclimatic www.awekas.at

W3Counter
Web Analytics